sensor_id;sensor_type;location;lat;lon;timestamp;P1;durP1;ratioP1;P2;durP2;ratioP2
50350;SDS011;36250;48.740;22.174;2023-05-19T00:00:30;2.88;;;2.67;;
50350;SDS011;36250;48.740;22.174;2023-05-19T00:02:55;3.22;;;3.03;;
50350;SDS011;36250;48.740;22.174;2023-05-19T00:05:21;8.60;;;2.55;;
50350;SDS011;36250;48.740;22.174;2023-05-19T00:07:47;3.00;;;2.67;;
50350;SDS011;36250;48.740;22.174;2023-05-19T00:10:16;2.72;;;2.42;;
50350;SDS011;36250;48.740;22.174;2023-05-19T00:12:42;3.70;;;3.15;;
50350;SDS011;36250;48.740;22.174;2023-05-19T00:15:07;3.40;;;3.03;;
50350;SDS011;36250;48.740;22.174;2023-05-19T00:17:34;3.53;;;2.92;;
50350;SDS011;36250;48.740;22.174;2023-05-19T00:20:01;4.40;;;2.92;;
50350;SDS011;36250;48.740;22.174;2023-05-19T00:22:31;2.78;;;2.28;;
50350;SDS011;36250;48.740;22.174;2023-05-19T00:24:56;2.97;;;2.33;;
50350;SDS011;36250;48.740;22.174;2023-05-19T00:27:22;3.03;;;2.70;;
50350;SDS011;36250;48.740;22.174;2023-05-19T00:29:47;3.25;;;2.60;;
50350;SDS011;36250;48.740;22.174;2023-05-19T00:32:12;3.40;;;2.90;;
50350;SDS011;36250;48.740;22.174;2023-05-19T00:34:37;4.65;;;2.58;;
50350;SDS011;36250;48.740;22.174;2023-05-19T00:37:03;3.30;;;2.88;;
50350;SDS011;36250;48.740;22.174;2023-05-19T00:39:28;2.50;;;2.30;;
50350;SDS011;36250;48.740;22.174;2023-05-19T00:41:54;4.80;;;2.88;;
50350;SDS011;36250;48.740;22.174;2023-05-19T00:44:19;4.78;;;3.70;;
50350;SDS011;36250;48.740;22.174;2023-05-19T00:46:44;7.53;;;3.35;;
50350;SDS011;36250;48.740;22.174;2023-05-19T00:49:10;3.63;;;2.55;;
50350;SDS011;36250;48.740;22.174;2023-05-19T00:51:35;3.45;;;2.90;;
50350;SDS011;36250;48.740;22.174;2023-05-19T00:54:01;4.05;;;2.95;;
50350;SDS011;36250;48.740;22.174;2023-05-19T00:56:27;3.03;;;2.55;;
50350;SDS011;36250;48.740;22.174;2023-05-19T00:58:52;3.17;;;2.67;;
50350;SDS011;36250;48.740;22.174;2023-05-19T01:01:18;2.72;;;2.53;;
50350;SDS011;36250;48.740;22.174;2023-05-19T01:03:45;5.43;;;3.00;;
50350;SDS011;36250;48.740;22.174;2023-05-19T01:06:12;5.70;;;2.80;;
50350;SDS011;36250;48.740;22.174;2023-05-19T01:08:37;2.97;;;2.78;;
50350;SDS011;36250;48.740;22.174;2023-05-19T01:11:06;4.35;;;2.83;;
50350;SDS011;36250;48.740;22.174;2023-05-19T01:13:32;3.92;;;2.30;;
50350;SDS011;36250;48.740;22.174;2023-05-19T01:18:49;3.72;;;2.65;;
50350;SDS011;36250;48.740;22.174;2023-05-19T01:32:05;3.83;;;2.35;;
50350;SDS011;36250;48.740;22.174;2023-05-19T01:34:33;2.80;;;2.50;;
50350;SDS011;36250;48.740;22.174;2023-05-19T01:37:06;3.75;;;2.75;;
50350;SDS011;36250;48.740;22.174;2023-05-19T01:39:32;3.22;;;2.53;;
50350;SDS011;36250;48.740;22.174;2023-05-19T01:41:59;2.60;;;2.40;;
50350;SDS011;36250;48.740;22.174;2023-05-19T01:44:26;3.20;;;3.00;;
50350;SDS011;36250;48.740;22.174;2023-05-19T01:46:52;4.32;;;2.95;;
50350;SDS011;36250;48.740;22.174;2023-05-19T01:49:18;3.45;;;2.75;;
50350;SDS011;36250;48.740;22.174;2023-05-19T01:51:43;6.22;;;2.88;;
50350;SDS011;36250;48.740;22.174;2023-05-19T01:54:09;4.10;;;3.13;;
50350;SDS011;36250;48.740;22.174;2023-05-19T01:56:45;8.18;;;2.70;;
50350;SDS011;36250;48.740;22.174;2023-05-19T02:11:02;5.13;;;2.08;;
50350;SDS011;36250;48.740;22.174;2023-05-19T02:13:36;2.75;;;2.55;;
50350;SDS011;36250;48.740;22.174;2023-05-19T02:16:07;2.75;;;2.33;;
50350;SDS011;36250;48.740;22.174;2023-05-19T02:18:36;2.58;;;1.98;;
50350;SDS011;36250;48.740;22.174;2023-05-19T02:21:01;2.42;;;2.22;;
50350;SDS011;36250;48.740;22.174;2023-05-19T02:23:27;3.05;;;2.85;;
50350;SDS011;36250;48.740;22.174;2023-05-19T02:25:52;2.72;;;2.53;;
50350;SDS011;36250;48.740;22.174;2023-05-19T02:28:18;5.32;;;2.50;;
50350;SDS011;36250;48.740;22.174;2023-05-19T02:30:43;2.60;;;2.40;;
50350;SDS011;36250;48.740;22.174;2023-05-19T02:33:08;4.20;;;2.35;;
50350;SDS011;36250;48.740;22.174;2023-05-19T02:35:35;2.40;;;2.20;;
50350;SDS011;36250;48.740;22.174;2023-05-19T02:38:01;4.75;;;1.60;;
50350;SDS011;36250;48.740;22.174;2023-05-19T02:40:26;2.10;;;2.00;;
50350;SDS011;36250;48.740;22.174;2023-05-19T02:42:51;4.85;;;2.45;;
50350;SDS011;36250;48.740;22.174;2023-05-19T02:45:17;3.45;;;3.15;;
50350;SDS011;36250;48.740;22.174;2023-05-19T02:47:42;4.00;;;3.47;;
50350;SDS011;36250;48.740;22.174;2023-05-19T02:50:08;4.68;;;3.22;;
50350;SDS011;36250;48.740;22.174;2023-05-19T02:52:33;6.03;;;3.20;;
50350;SDS011;36250;48.740;22.174;2023-05-19T02:54:58;4.50;;;3.47;;
50350;SDS011;36250;48.740;22.174;2023-05-19T02:57:24;4.15;;;3.67;;
50350;SDS011;36250;48.740;22.174;2023-05-19T02:59:50;3.55;;;3.22;;
50350;SDS011;36250;48.740;22.174;2023-05-19T03:02:16;4.50;;;3.60;;
50350;SDS011;36250;48.740;22.174;2023-05-19T03:04:41;4.00;;;3.65;;
50350;SDS011;36250;48.740;22.174;2023-05-19T03:07:07;4.72;;;3.22;;
50350;SDS011;36250;48.740;22.174;2023-05-19T03:09:40;5.22;;;2.97;;
50350;SDS011;36250;48.740;22.174;2023-05-19T03:12:05;4.20;;;3.33;;
50350;SDS011;36250;48.740;22.174;2023-05-19T03:14:33;2.88;;;2.50;;
50350;SDS011;36250;48.740;22.174;2023-05-19T03:16:59;5.88;;;2.33;;
50350;SDS011;36250;48.740;22.174;2023-05-19T03:19:25;2.45;;;2.22;;
50350;SDS011;36250;48.740;22.174;2023-05-19T03:21:51;3.15;;;1.88;;
50350;SDS011;36250;48.740;22.174;2023-05-19T03:24:16;2.38;;;2.00;;
50350;SDS011;36250;48.740;22.174;2023-05-19T03:26:42;3.55;;;1.73;;
50350;SDS011;36250;48.740;22.174;2023-05-19T03:29:07;1.90;;;1.80;;
50350;SDS011;36250;48.740;22.174;2023-05-19T03:31:32;2.42;;;1.83;;
50350;SDS011;36250;48.740;22.174;2023-05-19T03:33:58;5.80;;;1.80;;
50350;SDS011;36250;48.740;22.174;2023-05-19T03:36:23;2.45;;;2.22;;
50350;SDS011;36250;48.740;22.174;2023-05-19T03:38:49;2.80;;;2.00;;
50350;SDS011;36250;48.740;22.174;2023-05-19T03:41:14;7.55;;;2.38;;
50350;SDS011;36250;48.740;22.174;2023-05-19T03:43:39;2.53;;;2.22;;
50350;SDS011;36250;48.740;22.174;2023-05-19T03:46:05;6.20;;;2.20;;
50350;SDS011;36250;48.740;22.174;2023-05-19T03:48:30;2.50;;;2.30;;
50350;SDS011;36250;48.740;22.174;2023-05-19T03:50:55;2.00;;;1.90;;
50350;SDS011;36250;48.740;22.174;2023-05-19T03:53:22;3.17;;;2.08;;
50350;SDS011;36250;48.740;22.174;2023-05-19T03:55:47;7.28;;;2.35;;
50350;SDS011;36250;48.740;22.174;2023-05-19T03:58:13;4.85;;;3.22;;
50350;SDS011;36250;48.740;22.174;2023-05-19T04:00:39;7.35;;;2.50;;
50350;SDS011;36250;48.740;22.174;2023-05-19T04:03:05;3.30;;;3.00;;
50350;SDS011;36250;48.740;22.174;2023-05-19T04:05:31;3.97;;;2.90;;
50350;SDS011;36250;48.740;22.174;2023-05-19T04:07:57;4.38;;;3.97;;
50350;SDS011;36250;48.740;22.174;2023-05-19T04:10:22;3.22;;;2.63;;
50350;SDS011;36250;48.740;22.174;2023-05-19T04:12:48;4.82;;;3.30;;
50350;SDS011;36250;48.740;22.174;2023-05-19T04:15:13;5.43;;;3.33;;
50350;SDS011;36250;48.740;22.174;2023-05-19T04:17:38;4.78;;;3.00;;
50350;SDS011;36250;48.740;22.174;2023-05-19T04:20:04;7.75;;;3.83;;
50350;SDS011;36250;48.740;22.174;2023-05-19T04:22:30;5.35;;;3.03;;
50350;SDS011;36250;48.740;22.174;2023-05-19T04:24:56;6.20;;;3.72;;
50350;SDS011;36250;48.740;22.174;2023-05-19T04:27:22;5.03;;;2.95;;
50350;SDS011;36250;48.740;22.174;2023-05-19T04:29:48;4.22;;;3.42;;
50350;SDS011;36250;48.740;22.174;2023-05-19T04:32:13;3.70;;;3.00;;
50350;SDS011;36250;48.740;22.174;2023-05-19T04:34:41;5.95;;;2.40;;
50350;SDS011;36250;48.740;22.174;2023-05-19T04:37:09;4.22;;;2.40;;
50350;SDS011;36250;48.740;22.174;2023-05-19T04:39:36;2.88;;;2.28;;
50350;SDS011;36250;48.740;22.174;2023-05-19T04:42:04;3.03;;;2.75;;
50350;SDS011;36250;48.740;22.174;2023-05-19T04:44:29;4.22;;;2.50;;
50350;SDS011;36250;48.740;22.174;2023-05-19T04:46:55;4.57;;;2.03;;
50350;SDS011;36250;48.740;22.174;2023-05-19T04:49:22;5.53;;;2.55;;
50350;SDS011;36250;48.740;22.174;2023-05-19T04:51:48;3.22;;;2.65;;
50350;SDS011;36250;48.740;22.174;2023-05-19T04:54:15;3.78;;;2.60;;
50350;SDS011;36250;48.740;22.174;2023-05-19T04:56:41;2.90;;;2.47;;
50350;SDS011;36250;48.740;22.174;2023-05-19T04:59:07;3.58;;;2.65;;
50350;SDS011;36250;48.740;22.174;2023-05-19T05:01:33;3.15;;;2.42;;
50350;SDS011;36250;48.740;22.174;2023-05-19T05:04:04;5.68;;;2.42;;
50350;SDS011;36250;48.740;22.174;2023-05-19T05:06:29;3.85;;;2.30;;
50350;SDS011;36250;48.740;22.174;2023-05-19T05:08:55;5.63;;;2.50;;
50350;SDS011;36250;48.740;22.174;2023-05-19T05:11:21;2.40;;;2.20;;
50350;SDS011;36250;48.740;22.174;2023-05-19T05:13:46;2.75;;;2.08;;
50350;SDS011;36250;48.740;22.174;2023-05-19T05:16:12;2.80;;;2.30;;
50350;SDS011;36250;48.740;22.174;2023-05-19T05:18:38;7.53;;;2.30;;
50350;SDS011;36250;48.740;22.174;2023-05-19T05:21:04;3.22;;;2.30;;
50350;SDS011;36250;48.740;22.174;2023-05-19T05:23:30;6.15;;;2.05;;
50350;SDS011;36250;48.740;22.174;2023-05-19T05:25:56;5.00;;;2.13;;
50350;SDS011;36250;48.740;22.174;2023-05-19T05:28:21;2.88;;;2.28;;
50350;SDS011;36250;48.740;22.174;2023-05-19T05:30:47;2.13;;;1.80;;
50350;SDS011;36250;48.740;22.174;2023-05-19T05:33:13;3.83;;;2.28;;
50350;SDS011;36250;48.740;22.174;2023-05-19T05:35:39;6.18;;;2.30;;
50350;SDS011;36250;48.740;22.174;2023-05-19T05:38:04;2.22;;;2.03;;
50350;SDS011;36250;48.740;22.174;2023-05-19T05:40:30;4.45;;;1.88;;
50350;SDS011;36250;48.740;22.174;2023-05-19T05:42:56;3.33;;;1.70;;
50350;SDS011;36250;48.740;22.174;2023-05-19T05:45:23;4.80;;;1.60;;
50350;SDS011;36250;48.740;22.174;2023-05-19T05:47:48;1.63;;;1.40;;
50350;SDS011;36250;48.740;22.174;2023-05-19T05:50:15;3.72;;;1.70;;
50350;SDS011;36250;48.740;22.174;2023-05-19T05:52:43;4.10;;;2.05;;
50350;SDS011;36250;48.740;22.174;2023-05-19T05:55:10;2.03;;;1.92;;
50350;SDS011;36250;48.740;22.174;2023-05-19T05:57:36;1.92;;;1.60;;
50350;SDS011;36250;48.740;22.174;2023-05-19T06:00:02;2.20;;;2.00;;
50350;SDS011;36250;48.740;22.174;2023-05-19T06:02:31;1.92;;;1.70;;
50350;SDS011;36250;48.740;22.174;2023-05-19T06:04:56;2.42;;;1.88;;
50350;SDS011;36250;48.740;22.174;2023-05-19T06:07:22;1.85;;;1.75;;
50350;SDS011;36250;48.740;22.174;2023-05-19T06:09:48;2.72;;;1.92;;
50350;SDS011;36250;48.740;22.174;2023-05-19T06:12:13;2.10;;;1.88;;
50350;SDS011;36250;48.740;22.174;2023-05-19T06:14:39;2.00;;;1.80;;
50350;SDS011;36250;48.740;22.174;2023-05-19T06:17:04;1.80;;;1.70;;
50350;SDS011;36250;48.740;22.174;2023-05-19T06:19:29;3.47;;;2.03;;
50350;SDS011;36250;48.740;22.174;2023-05-19T06:21:55;3.30;;;2.20;;
50350;SDS011;36250;48.740;22.174;2023-05-19T06:24:20;2.25;;;2.03;;
50350;SDS011;36250;48.740;22.174;2023-05-19T06:26:45;1.98;;;1.88;;
50350;SDS011;36250;48.740;22.174;2023-05-19T06:29:11;2.80;;;2.22;;
50350;SDS011;36250;48.740;22.174;2023-05-19T06:31:36;2.33;;;2.13;;
50350;SDS011;36250;48.740;22.174;2023-05-19T06:34:01;3.92;;;2.40;;
50350;SDS011;36250;48.740;22.174;2023-05-19T06:36:27;4.18;;;2.55;;
50350;SDS011;36250;48.740;22.174;2023-05-19T06:38:52;4.72;;;2.13;;
50350;SDS011;36250;48.740;22.174;2023-05-19T06:41:17;3.33;;;3.03;;
50350;SDS011;36250;48.740;22.174;2023-05-19T06:43:43;6.65;;;4.13;;
50350;SDS011;36250;48.740;22.174;2023-05-19T06:46:08;6.65;;;2.30;;
50350;SDS011;36250;48.740;22.174;2023-05-19T06:48:34;3.25;;;2.30;;
50350;SDS011;36250;48.740;22.174;2023-05-19T06:50:59;4.10;;;2.47;;
50350;SDS011;36250;48.740;22.174;2023-05-19T06:53:25;3.60;;;2.22;;
50350;SDS011;36250;48.740;22.174;2023-05-19T06:55:50;3.70;;;2.40;;
50350;SDS011;36250;48.740;22.174;2023-05-19T06:58:16;8.88;;;2.60;;
50350;SDS011;36250;48.740;22.174;2023-05-19T07:00:41;5.07;;;2.88;;
50350;SDS011;36250;48.740;22.174;2023-05-19T07:03:07;3.85;;;2.30;;
50350;SDS011;36250;48.740;22.174;2023-05-19T07:05:32;2.70;;;2.50;;
50350;SDS011;36250;48.740;22.174;2023-05-19T07:07:58;3.28;;;2.40;;
50350;SDS011;36250;48.740;22.174;2023-05-19T07:10:23;4.53;;;2.70;;
50350;SDS011;36250;48.740;22.174;2023-05-19T07:12:48;2.22;;;2.03;;
50350;SDS011;36250;48.740;22.174;2023-05-19T07:15:14;5.93;;;2.50;;
50350;SDS011;36250;48.740;22.174;2023-05-19T07:17:39;4.03;;;2.72;;
50350;SDS011;36250;48.740;22.174;2023-05-19T07:20:05;5.50;;;2.15;;
50350;SDS011;36250;48.740;22.174;2023-05-19T07:22:31;5.28;;;2.83;;
50350;SDS011;36250;48.740;22.174;2023-05-19T07:24:59;3.53;;;2.63;;
50350;SDS011;36250;48.740;22.174;2023-05-19T07:27:24;2.40;;;2.20;;
50350;SDS011;36250;48.740;22.174;2023-05-19T07:29:50;2.90;;;2.17;;
50350;SDS011;36250;48.740;22.174;2023-05-19T07:32:15;3.08;;;2.40;;
50350;SDS011;36250;48.740;22.174;2023-05-19T07:34:41;5.07;;;2.75;;
50350;SDS011;36250;48.740;22.174;2023-05-19T07:37:06;3.33;;;2.53;;
50350;SDS011;36250;48.740;22.174;2023-05-19T07:39:32;4.03;;;2.50;;
50350;SDS011;36250;48.740;22.174;2023-05-19T07:41:59;3.33;;;2.30;;
50350;SDS011;36250;48.740;22.174;2023-05-19T07:44:24;5.15;;;2.65;;
50350;SDS011;36250;48.740;22.174;2023-05-19T07:46:51;4.55;;;2.47;;
50350;SDS011;36250;48.740;22.174;2023-05-19T07:49:16;3.80;;;2.85;;
50350;SDS011;36250;48.740;22.174;2023-05-19T07:51:42;2.85;;;2.65;;
50350;SDS011;36250;48.740;22.174;2023-05-19T07:54:07;3.47;;;2.03;;
50350;SDS011;36250;48.740;22.174;2023-05-19T07:56:33;3.20;;;2.90;;
50350;SDS011;36250;48.740;22.174;2023-05-19T07:58:58;3.38;;;2.58;;
50350;SDS011;36250;48.740;22.174;2023-05-19T08:01:23;4.63;;;2.80;;
50350;SDS011;36250;48.740;22.174;2023-05-19T08:03:49;2.97;;;2.67;;
50350;SDS011;36250;48.740;22.174;2023-05-19T08:06:14;3.70;;;2.80;;
50350;SDS011;36250;48.740;22.174;2023-05-19T08:08:39;6.05;;;2.90;;
50350;SDS011;36250;48.740;22.174;2023-05-19T08:11:06;4.43;;;2.97;;
50350;SDS011;36250;48.740;22.174;2023-05-19T08:13:31;3.60;;;2.60;;
50350;SDS011;36250;48.740;22.174;2023-05-19T08:15:57;3.70;;;2.70;;
50350;SDS011;36250;48.740;22.174;2023-05-19T08:18:26;4.97;;;2.67;;
50350;SDS011;36250;48.740;22.174;2023-05-19T08:20:52;4.30;;;2.20;;
50350;SDS011;36250;48.740;22.174;2023-05-19T08:23:17;6.43;;;2.33;;
50350;SDS011;36250;48.740;22.174;2023-05-19T08:25:42;3.35;;;2.42;;
50350;SDS011;36250;48.740;22.174;2023-05-19T08:28:08;4.55;;;2.80;;
50350;SDS011;36250;48.740;22.174;2023-05-19T08:30:34;3.95;;;2.72;;
50350;SDS011;36250;48.740;22.174;2023-05-19T08:32:59;9.30;;;2.97;;
50350;SDS011;36250;48.740;22.174;2023-05-19T08:35:25;4.43;;;2.83;;
50350;SDS011;36250;48.740;22.174;2023-05-19T08:37:50;2.75;;;2.55;;
50350;SDS011;36250;48.740;22.174;2023-05-19T08:40:16;4.85;;;2.60;;
50350;SDS011;36250;48.740;22.174;2023-05-19T08:42:43;2.85;;;2.35;;
50350;SDS011;36250;48.740;22.174;2023-05-19T08:45:09;2.72;;;2.53;;
50350;SDS011;36250;48.740;22.174;2023-05-19T08:47:34;6.05;;;2.88;;
50350;SDS011;36250;48.740;22.174;2023-05-19T08:50:04;3.78;;;2.60;;
50350;SDS011;36250;48.740;22.174;2023-05-19T08:52:50;2.40;;;2.20;;
50350;SDS011;36250;48.740;22.174;2023-05-19T08:58:07;5.78;;;2.83;;
50350;SDS011;36250;48.740;22.174;2023-05-19T09:00:35;2.60;;;2.40;;
50350;SDS011;36250;48.740;22.174;2023-05-19T09:03:01;7.07;;;2.97;;
50350;SDS011;36250;48.740;22.174;2023-05-19T09:05:27;3.13;;;2.15;;
50350;SDS011;36250;48.740;22.174;2023-05-19T09:07:52;4.85;;;2.42;;
50350;SDS011;36250;48.740;22.174;2023-05-19T09:10:17;3.90;;;3.03;;
50350;SDS011;36250;48.740;22.174;2023-05-19T09:12:43;2.90;;;2.50;;
50350;SDS011;36250;48.740;22.174;2023-05-19T09:15:11;3.95;;;2.47;;
50350;SDS011;36250;48.740;22.174;2023-05-19T09:17:38;6.22;;;2.65;;
50350;SDS011;36250;48.740;22.174;2023-05-19T09:20:04;2.60;;;2.40;;
50350;SDS011;36250;48.740;22.174;2023-05-19T09:22:42;3.00;;;2.65;;
50350;SDS011;36250;48.740;22.174;2023-05-19T09:25:45;3.22;;;2.90;;
50350;SDS011;36250;48.740;22.174;2023-05-19T09:28:10;3.42;;;2.80;;
50350;SDS011;36250;48.740;22.174;2023-05-19T09:30:35;4.78;;;2.85;;
50350;SDS011;36250;48.740;22.174;2023-05-19T09:33:01;5.47;;;3.28;;
50350;SDS011;36250;48.740;22.174;2023-05-19T09:35:28;3.88;;;3.05;;
50350;SDS011;36250;48.740;22.174;2023-05-19T09:37:53;3.60;;;3.22;;
50350;SDS011;36250;48.740;22.174;2023-05-19T09:40:19;6.47;;;3.35;;
50350;SDS011;36250;48.740;22.174;2023-05-19T09:42:44;7.40;;;2.88;;
50350;SDS011;36250;48.740;22.174;2023-05-19T09:45:12;5.95;;;3.05;;
50350;SDS011;36250;48.740;22.174;2023-05-19T09:47:39;4.35;;;3.40;;
50350;SDS011;36250;48.740;22.174;2023-05-19T09:50:06;6.68;;;3.38;;
50350;SDS011;36250;48.740;22.174;2023-05-19T09:52:36;4.13;;;3.08;;
50350;SDS011;36250;48.740;22.174;2023-05-19T09:55:02;5.22;;;3.47;;
50350;SDS011;36250;48.740;22.174;2023-05-19T09:57:33;4.03;;;3.60;;
50350;SDS011;36250;48.740;22.174;2023-05-19T10:00:01;5.72;;;4.30;;
50350;SDS011;36250;48.740;22.174;2023-05-19T10:02:42;3.80;;;3.38;;
50350;SDS011;36250;48.740;22.174;2023-05-19T10:05:15;4.38;;;3.53;;
50350;SDS011;36250;48.740;22.174;2023-05-19T10:07:44;6.47;;;3.47;;
50350;SDS011;36250;48.740;22.174;2023-05-19T10:10:12;6.55;;;3.72;;
50350;SDS011;36250;48.740;22.174;2023-05-19T10:12:39;5.38;;;4.07;;
50350;SDS011;36250;48.740;22.174;2023-05-19T10:15:08;3.97;;;3.08;;
50350;SDS011;36250;48.740;22.174;2023-05-19T10:17:38;8.25;;;3.72;;
50350;SDS011;36250;48.740;22.174;2023-05-19T10:22:38;6.15;;;2.60;;
50350;SDS011;36250;48.740;22.174;2023-05-19T10:25:04;3.25;;;2.92;;
50350;SDS011;36250;48.740;22.174;2023-05-19T10:27:31;4.40;;;2.80;;
50350;SDS011;36250;48.740;22.174;2023-05-19T10:30:11;5.72;;;3.05;;
50350;SDS011;36250;48.740;22.174;2023-05-19T10:32:40;4.70;;;3.35;;
50350;SDS011;36250;48.740;22.174;2023-05-19T10:35:14;6.25;;;3.67;;
50350;SDS011;36250;48.740;22.174;2023-05-19T10:38:04;5.90;;;3.50;;
50350;SDS011;36250;48.740;22.174;2023-05-19T10:40:39;6.18;;;3.30;;
50350;SDS011;36250;48.740;22.174;2023-05-19T10:46:12;5.85;;;3.95;;
50350;SDS011;36250;48.740;22.174;2023-05-19T10:48:38;5.25;;;3.65;;
50350;SDS011;36250;48.740;22.174;2023-05-19T10:51:08;10.63;;;3.92;;
50350;SDS011;36250;48.740;22.174;2023-05-19T10:53:37;4.07;;;3.55;;
50350;SDS011;36250;48.740;22.174;2023-05-19T10:56:05;5.75;;;3.38;;
50350;SDS011;36250;48.740;22.174;2023-05-19T10:58:35;3.60;;;3.20;;
50350;SDS011;36250;48.740;22.174;2023-05-19T11:01:07;6.97;;;3.75;;
50350;SDS011;36250;48.740;22.174;2023-05-19T11:03:51;4.50;;;3.28;;
50350;SDS011;36250;48.740;22.174;2023-05-19T11:08:58;6.82;;;3.63;;
50350;SDS011;36250;48.740;22.174;2023-05-19T11:11:44;6.22;;;3.05;;
50350;SDS011;36250;48.740;22.174;2023-05-19T11:14:10;3.85;;;3.28;;
50350;SDS011;36250;48.740;22.174;2023-05-19T11:16:39;6.65;;;3.78;;
50350;SDS011;36250;48.740;22.174;2023-05-19T11:19:15;4.60;;;3.78;;
50350;SDS011;36250;48.740;22.174;2023-05-19T11:21:47;5.00;;;3.22;;
50350;SDS011;36250;48.740;22.174;2023-05-19T11:27:27;5.65;;;3.50;;
50350;SDS011;36250;48.740;22.174;2023-05-19T11:30:00;6.25;;;3.55;;
50350;SDS011;36250;48.740;22.174;2023-05-19T11:32:38;7.05;;;3.92;;
50350;SDS011;36250;48.740;22.174;2023-05-19T11:35:06;4.30;;;3.72;;
50350;SDS011;36250;48.740;22.174;2023-05-19T11:37:32;5.15;;;3.47;;
50350;SDS011;36250;48.740;22.174;2023-05-19T11:40:02;5.85;;;3.42;;
50350;SDS011;36250;48.740;22.174;2023-05-19T11:42:30;6.95;;;4.07;;
50350;SDS011;36250;48.740;22.174;2023-05-19T11:44:56;4.07;;;3.67;;
50350;SDS011;36250;48.740;22.174;2023-05-19T11:47:21;6.78;;;3.70;;
50350;SDS011;36250;48.740;22.174;2023-05-19T11:49:47;4.03;;;3.65;;
50350;SDS011;36250;48.740;22.174;2023-05-19T11:52:13;5.30;;;3.60;;
50350;SDS011;36250;48.740;22.174;2023-05-19T11:54:39;12.07;;;3.85;;
50350;SDS011;36250;48.740;22.174;2023-05-19T11:57:06;4.72;;;3.65;;
50350;SDS011;36250;48.740;22.174;2023-05-19T11:59:34;4.00;;;3.38;;
50350;SDS011;36250;48.740;22.174;2023-05-19T12:02:23;3.60;;;3.28;;
50350;SDS011;36250;48.740;22.174;2023-05-19T12:04:51;6.90;;;3.45;;
50350;SDS011;36250;48.740;22.174;2023-05-19T12:07:18;6.88;;;3.72;;
50350;SDS011;36250;48.740;22.174;2023-05-19T12:09:47;8.43;;;3.63;;
50350;SDS011;36250;48.740;22.174;2023-05-19T12:12:16;4.78;;;3.17;;
50350;SDS011;36250;48.740;22.174;2023-05-19T12:14:43;3.50;;;3.20;;
50350;SDS011;36250;48.740;22.174;2023-05-19T12:17:11;4.90;;;3.70;;
50350;SDS011;36250;48.740;22.174;2023-05-19T12:19:44;3.70;;;3.40;;
50350;SDS011;36250;48.740;22.174;2023-05-19T12:22:11;4.15;;;3.20;;
50350;SDS011;36250;48.740;22.174;2023-05-19T12:24:37;4.70;;;3.63;;
50350;SDS011;36250;48.740;22.174;2023-05-19T12:27:10;7.28;;;3.50;;
50350;SDS011;36250;48.740;22.174;2023-05-19T12:29:39;6.03;;;3.53;;
50350;SDS011;36250;48.740;22.174;2023-05-19T12:32:08;5.30;;;4.00;;
50350;SDS011;36250;48.740;22.174;2023-05-19T12:34:36;4.07;;;3.72;;
50350;SDS011;36250;48.740;22.174;2023-05-19T12:37:03;4.95;;;3.55;;
50350;SDS011;36250;48.740;22.174;2023-05-19T12:39:29;8.43;;;3.88;;
50350;SDS011;36250;48.740;22.174;2023-05-19T12:42:01;7.07;;;3.40;;
50350;SDS011;36250;48.740;22.174;2023-05-19T12:44:27;4.57;;;3.70;;
50350;SDS011;36250;48.740;22.174;2023-05-19T12:46:55;6.03;;;3.85;;
50350;SDS011;36250;48.740;22.174;2023-05-19T12:49:21;9.38;;;3.22;;
50350;SDS011;36250;48.740;22.174;2023-05-19T12:51:50;5.60;;;3.42;;
50350;SDS011;36250;48.740;22.174;2023-05-19T12:54:20;8.75;;;3.15;;
50350;SDS011;36250;48.740;22.174;2023-05-19T12:56:52;3.78;;;3.47;;
50350;SDS011;36250;48.740;22.174;2023-05-19T12:59:21;3.22;;;2.90;;
50350;SDS011;36250;48.740;22.174;2023-05-19T13:01:57;6.13;;;3.45;;
50350;SDS011;36250;48.740;22.174;2023-05-19T13:04:23;10.95;;;3.63;;
50350;SDS011;36250;48.740;22.174;2023-05-19T13:06:49;5.25;;;3.08;;
50350;SDS011;36250;48.740;22.174;2023-05-19T13:09:15;5.13;;;3.38;;
50350;SDS011;36250;48.740;22.174;2023-05-19T13:11:41;6.45;;;3.08;;
50350;SDS011;36250;48.740;22.174;2023-05-19T13:14:07;8.95;;;3.53;;
50350;SDS011;36250;48.740;22.174;2023-05-19T13:16:33;11.48;;;3.22;;
50350;SDS011;36250;48.740;22.174;2023-05-19T13:18:58;6.93;;;3.38;;
50350;SDS011;36250;48.740;22.174;2023-05-19T13:21:24;3.50;;;3.20;;
50350;SDS011;36250;48.740;22.174;2023-05-19T13:23:50;7.10;;;3.58;;
50350;SDS011;36250;48.740;22.174;2023-05-19T13:26:16;3.92;;;3.25;;
50350;SDS011;36250;48.740;22.174;2023-05-19T13:28:41;3.67;;;2.75;;
50350;SDS011;36250;48.740;22.174;2023-05-19T13:31:07;5.03;;;3.10;;
50350;SDS011;36250;48.740;22.174;2023-05-19T13:33:32;4.93;;;2.78;;
50350;SDS011;36250;48.740;22.174;2023-05-19T13:35:57;4.85;;;3.38;;
50350;SDS011;36250;48.740;22.174;2023-05-19T13:38:23;3.60;;;3.03;;
50350;SDS011;36250;48.740;22.174;2023-05-19T13:40:48;6.70;;;3.70;;
50350;SDS011;36250;48.740;22.174;2023-05-19T13:43:14;7.90;;;3.55;;
50350;SDS011;36250;48.740;22.174;2023-05-19T13:45:39;3.55;;;3.20;;
50350;SDS011;36250;48.740;22.174;2023-05-19T13:48:07;6.60;;;3.60;;
50350;SDS011;36250;48.740;22.174;2023-05-19T13:50:32;6.38;;;3.78;;
50350;SDS011;36250;48.740;22.174;2023-05-19T13:52:58;3.13;;;2.67;;
50350;SDS011;36250;48.740;22.174;2023-05-19T13:55:23;9.10;;;3.50;;
50350;SDS011;36250;48.740;22.174;2023-05-19T13:57:51;6.00;;;3.13;;
50350;SDS011;36250;48.740;22.174;2023-05-19T14:00:17;5.00;;;3.28;;
50350;SDS011;36250;48.740;22.174;2023-05-19T14:02:43;2.90;;;2.70;;
50350;SDS011;36250;48.740;22.174;2023-05-19T14:05:09;5.13;;;3.45;;
50350;SDS011;36250;48.740;22.174;2023-05-19T14:07:34;4.82;;;2.80;;
50350;SDS011;36250;48.740;22.174;2023-05-19T14:10:00;5.93;;;3.03;;
50350;SDS011;36250;48.740;22.174;2023-05-19T14:12:26;4.13;;;3.42;;
50350;SDS011;36250;48.740;22.174;2023-05-19T14:14:51;13.52;;;4.10;;
50350;SDS011;36250;48.740;22.174;2023-05-19T14:17:17;8.43;;;3.78;;
50350;SDS011;36250;48.740;22.174;2023-05-19T14:19:42;6.47;;;3.35;;
50350;SDS011;36250;48.740;22.174;2023-05-19T14:22:07;4.57;;;4.00;;
50350;SDS011;36250;48.740;22.174;2023-05-19T14:24:33;8.02;;;3.88;;
50350;SDS011;36250;48.740;22.174;2023-05-19T14:26:58;4.20;;;3.80;;
50350;SDS011;36250;48.740;22.174;2023-05-19T14:29:26;7.30;;;4.28;;
50350;SDS011;36250;48.740;22.174;2023-05-19T14:31:52;5.47;;;3.78;;
50350;SDS011;36250;48.740;22.174;2023-05-19T14:34:17;5.28;;;4.25;;
50350;SDS011;36250;48.740;22.174;2023-05-19T14:36:45;5.13;;;3.95;;
50350;SDS011;36250;48.740;22.174;2023-05-19T14:39:12;5.68;;;4.20;;
50350;SDS011;36250;48.740;22.174;2023-05-19T14:41:38;11.50;;;4.25;;
50350;SDS011;36250;48.740;22.174;2023-05-19T14:44:03;5.80;;;4.47;;
50350;SDS011;36250;48.740;22.174;2023-05-19T14:46:29;4.20;;;3.83;;
50350;SDS011;36250;48.740;22.174;2023-05-19T14:48:54;9.85;;;4.30;;
50350;SDS011;36250;48.740;22.174;2023-05-19T14:51:20;9.85;;;3.97;;
50350;SDS011;36250;48.740;22.174;2023-05-19T14:53:45;4.78;;;3.88;;
50350;SDS011;36250;48.740;22.174;2023-05-19T14:56:11;5.40;;;4.00;;
50350;SDS011;36250;48.740;22.174;2023-05-19T14:58:36;6.03;;;3.63;;
50350;SDS011;36250;48.740;22.174;2023-05-19T15:01:02;4.00;;;3.60;;
50350;SDS011;36250;48.740;22.174;2023-05-19T15:03:27;7.05;;;4.43;;
50350;SDS011;36250;48.740;22.174;2023-05-19T15:05:52;4.88;;;3.90;;
50350;SDS011;36250;48.740;22.174;2023-05-19T15:08:18;8.40;;;4.00;;
50350;SDS011;36250;48.740;22.174;2023-05-19T15:10:46;5.53;;;4.18;;